Terminal Aerodrome Forecast
Issued by NWS

Home | Current Version | Previous Version | Text Only | Print | Product List | Glossary On
Versions: 1 2 3 4 5 6 7 8 9 10 11 12 13
222
FTUS45 KVEF 222320
TAFEED
TAF
KEED 222320Z 2300/2324 01013KT P6SM FEW250
     FM230100 34008KT P6SM SCT250
     FM231800 02014G24KT P6SM SCT250=

USA.gov is the U.S. government's official web portal to all federal, state and local government web resources and services.